sensor_id;sensor_type;location;lat;lon;timestamp;pressure;altitude;pressure_sealevel;temperature;humidity
15750;BME280;7976;52.526;13.326;2022-11-15T00:02:32;101068.97;;;8.50;88.41
15750;BME280;7976;52.526;13.326;2022-11-15T00:05:20;101064.59;;;8.51;88.57
15750;BME280;7976;52.526;13.326;2022-11-15T00:08:06;101065.47;;;8.51;88.49
15750;BME280;7976;52.526;13.326;2022-11-15T00:10:56;101061.94;;;8.52;88.57
15750;BME280;7976;52.526;13.326;2022-11-15T00:13:43;101061.13;;;8.52;88.29
15750;BME280;7976;52.526;13.326;2022-11-15T00:16:29;101056.81;;;8.49;88.31
15750;BME280;7976;52.526;13.326;2022-11-15T00:19:14;101047.28;;;8.48;88.47
15750;BME280;7976;52.526;13.326;2022-11-15T00:22:00;101035.94;;;8.49;88.46
15750;BME280;7976;52.526;13.326;2022-11-15T00:24:46;101043.81;;;8.48;88.46
15750;BME280;7976;52.526;13.326;2022-11-15T00:27:31;101046.50;;;8.45;88.64
15750;BME280;7976;52.526;13.326;2022-11-15T00:30:18;101030.94;;;8.42;88.41
15750;BME280;7976;52.526;13.326;2022-11-15T00:33:05;101034.38;;;8.42;88.57
15750;BME280;7976;52.526;13.326;2022-11-15T00:35:51;101035.34;;;8.38;88.27
15750;BME280;7976;52.526;13.326;2022-11-15T00:38:39;101027.56;;;8.37;88.67
15750;BME280;7976;52.526;13.326;2022-11-15T00:41:24;101031.91;;;8.36;88.74
15750;BME280;7976;52.526;13.326;2022-11-15T00:44:10;101031.06;;;8.36;88.51
15750;BME280;7976;52.526;13.326;2022-11-15T00:46:57;101022.34;;;8.37;88.59
15750;BME280;7976;52.526;13.326;2022-11-15T00:49:43;101029.34;;;8.35;88.52
15750;BME280;7976;52.526;13.326;2022-11-15T00:52:28;101017.19;;;8.35;88.66
15750;BME280;7976;52.526;13.326;2022-11-15T00:55:15;101015.41;;;8.36;88.51
15750;BME280;7976;52.526;13.326;2022-11-15T00:58:01;101020.63;;;8.36;88.45
15750;BME280;7976;52.526;13.326;2022-11-15T01:00:46;101022.34;;;8.37;88.68
15750;BME280;7976;52.526;13.326;2022-11-15T01:03:34;101018.03;;;8.36;88.65
15750;BME280;7976;52.526;13.326;2022-11-15T01:06:19;101021.53;;;8.35;88.41
15750;BME280;7976;52.526;13.326;2022-11-15T01:09:05;101011.97;;;8.35;88.46
15750;BME280;7976;52.526;13.326;2022-11-15T01:11:50;101005.06;;;8.33;88.55
15750;BME280;7976;52.526;13.326;2022-11-15T01:14:39;101011.25;;;8.29;88.44
15750;BME280;7976;52.526;13.326;2022-11-15T01:17:25;101000.78;;;8.30;88.47
15750;BME280;7976;52.526;13.326;2022-11-15T01:20:13;100999.97;;;8.28;88.60
15750;BME280;7976;52.526;13.326;2022-11-15T01:22:58;101003.53;;;8.23;88.28
15750;BME280;7976;52.526;13.326;2022-11-15T01:25:43;101001.91;;;8.19;88.63
15750;BME280;7976;52.526;13.326;2022-11-15T01:28:31;100996.69;;;8.19;88.63
15750;BME280;7976;52.526;13.326;2022-11-15T01:31:21;100987.09;;;8.19;88.66
15750;BME280;7976;52.526;13.326;2022-11-15T01:34:07;100982.75;;;8.20;88.64
15750;BME280;7976;52.526;13.326;2022-11-15T01:36:54;100986.22;;;8.20;88.74
15750;BME280;7976;52.526;13.326;2022-11-15T01:39:40;100986.19;;;8.22;88.59
15750;BME280;7976;52.526;13.326;2022-11-15T01:42:25;100974.84;;;8.23;88.82
15750;BME280;7976;52.526;13.326;2022-11-15T01:45:15;100980.16;;;8.20;88.74
15750;BME280;7976;52.526;13.326;2022-11-15T01:48:01;100966.25;;;8.19;88.53
15750;BME280;7976;52.526;13.326;2022-11-15T01:50:48;100959.41;;;8.15;88.54
15750;BME280;7976;52.526;13.326;2022-11-15T01:53:40;100956.03;;;8.12;88.66
15750;BME280;7976;52.526;13.326;2022-11-15T01:56:36;100956.94;;;8.09;88.68
15750;BME280;7976;52.526;13.326;2022-11-15T01:59:25;100948.28;;;8.09;88.84
15750;BME280;7976;52.526;13.326;2022-11-15T02:02:12;100946.47;;;8.11;88.85
15750;BME280;7976;52.526;13.326;2022-11-15T02:04:58;100940.47;;;8.09;88.85
15750;BME280;7976;52.526;13.326;2022-11-15T02:07:45;100940.47;;;8.09;88.78
15750;BME280;7976;52.526;13.326;2022-11-15T02:10:32;100940.50;;;8.06;88.54
15750;BME280;7976;52.526;13.326;2022-11-15T02:13:18;100940.63;;;8.01;88.72
15750;BME280;7976;52.526;13.326;2022-11-15T02:16:13;100938.81;;;8.05;89.06
15750;BME280;7976;52.526;13.326;2022-11-15T02:19:20;100936.13;;;8.08;88.72
15750;BME280;7976;52.526;13.326;2022-11-15T02:22:25;100937.78;;;8.12;88.89
15750;BME280;7976;52.526;13.326;2022-11-15T02:25:38;100939.47;;;8.13;88.80
15750;BME280;7976;52.526;13.326;2022-11-15T02:28:48;100942.09;;;8.13;88.82
15750;BME280;7976;52.526;13.326;2022-11-15T02:31:51;100942.13;;;8.11;88.77
15750;BME280;7976;52.526;13.326;2022-11-15T02:34:50;100943.91;;;8.09;88.86
15750;BME280;7976;52.526;13.326;2022-11-15T02:37:45;100937.91;;;8.06;88.65
15750;BME280;7976;52.526;13.326;2022-11-15T02:40:41;100929.31;;;8.04;88.64
15750;BME280;7976;52.526;13.326;2022-11-15T02:43:40;100934.56;;;8.01;88.81
15750;BME280;7976;52.526;13.326;2022-11-15T02:46:49;100916.41;;;7.98;88.82
15750;BME280;7976;52.526;13.326;2022-11-15T02:49:57;100920.72;;;7.99;88.48
15750;BME280;7976;52.526;13.326;2022-11-15T02:52:46;100923.34;;;7.97;88.75
15750;BME280;7976;52.526;13.326;2022-11-15T02:55:35;100918.25;;;7.93;88.98
15750;BME280;7976;52.526;13.326;2022-11-15T02:58:52;100918.13;;;7.99;89.14
15750;BME280;7976;52.526;13.326;2022-11-15T03:01:56;100916.50;;;7.93;88.71
15750;BME280;7976;52.526;13.326;2022-11-15T03:04:54;100915.75;;;7.88;88.82
15750;BME280;7976;52.526;13.326;2022-11-15T03:07:51;100920.16;;;7.86;89.01
15750;BME280;7976;52.526;13.326;2022-11-15T03:10:46;100924.44;;;7.89;89.04
15750;BME280;7976;52.526;13.326;2022-11-15T03:13:44;100917.47;;;7.89;89.11
15750;BME280;7976;52.526;13.326;2022-11-15T03:16:39;100909.56;;;7.92;88.89
15750;BME280;7976;52.526;13.326;2022-11-15T03:19:33;100917.31;;;7.97;89.21
15750;BME280;7976;52.526;13.326;2022-11-15T03:22:25;100911.19;;;7.98;89.00
15750;BME280;7976;52.526;13.326;2022-11-15T03:25:19;100924.22;;;7.98;89.06
15750;BME280;7976;52.526;13.326;2022-11-15T03:28:09;100912.13;;;7.95;88.54
15750;BME280;7976;52.526;13.326;2022-11-15T03:30:56;100909.56;;;7.94;88.88
15750;BME280;7976;52.526;13.326;2022-11-15T03:33:44;100913.09;;;7.91;88.94
15750;BME280;7976;52.526;13.326;2022-11-15T03:36:33;100909.53;;;7.95;89.00
15750;BME280;7976;52.526;13.326;2022-11-15T03:39:21;100919.13;;;7.93;88.79
15750;BME280;7976;52.526;13.326;2022-11-15T03:42:19;100914.78;;;7.94;88.95
15750;BME280;7976;52.526;13.326;2022-11-15T03:45:14;100910.47;;;7.91;88.87
15750;BME280;7976;52.526;13.326;2022-11-15T03:48:10;100911.44;;;7.89;88.86
15750;BME280;7976;52.526;13.326;2022-11-15T03:50:58;100906.25;;;7.86;88.88
15750;BME280;7976;52.526;13.326;2022-11-15T03:53:45;100916.63;;;7.89;89.03
15750;BME280;7976;52.526;13.326;2022-11-15T03:56:31;100902.69;;;7.90;89.10
15750;BME280;7976;52.526;13.326;2022-11-15T03:59:17;100900.09;;;7.90;89.12
15750;BME280;7976;52.526;13.326;2022-11-15T04:02:02;100894.88;;;7.90;88.98
15750;BME280;7976;52.526;13.326;2022-11-15T04:04:48;100894.88;;;7.90;89.18
15750;BME280;7976;52.526;13.326;2022-11-15T04:07:34;100901.84;;;7.89;88.91
15750;BME280;7976;52.526;13.326;2022-11-15T04:10:21;100893.97;;;7.91;88.76
15750;BME280;7976;52.526;13.326;2022-11-15T04:13:07;100897.50;;;7.90;89.13
15750;BME280;7976;52.526;13.326;2022-11-15T04:15:52;100890.59;;;7.87;88.97
15750;BME280;7976;52.526;13.326;2022-11-15T04:18:38;100896.66;;;7.88;89.16
15750;BME280;7976;52.526;13.326;2022-11-15T04:21:24;100894.06;;;7.88;89.03
15750;BME280;7976;52.526;13.326;2022-11-15T04:24:38;100903.66;;;7.86;89.03
15750;BME280;7976;52.526;13.326;2022-11-15T04:27:25;100892.38;;;7.87;89.09
15750;BME280;7976;52.526;13.326;2022-11-15T04:30:11;100894.88;;;7.90;89.02
15750;BME280;7976;52.526;13.326;2022-11-15T04:32:57;100888.84;;;7.88;88.85
15750;BME280;7976;52.526;13.326;2022-11-15T04:35:43;100884.53;;;7.87;88.97
15750;BME280;7976;52.526;13.326;2022-11-15T04:38:52;100886.13;;;7.94;89.25
15750;BME280;7976;52.526;13.326;2022-11-15T04:41:38;100890.44;;;7.95;89.02
15750;BME280;7976;52.526;13.326;2022-11-15T04:44:25;100886.03;;;7.97;89.22
15750;BME280;7976;52.526;13.326;2022-11-15T04:47:10;100883.44;;;7.97;89.23
15750;BME280;7976;52.526;13.326;2022-11-15T04:49:55;100872.09;;;7.98;89.32
15750;BME280;7976;52.526;13.326;2022-11-15T04:52:42;100870.31;;;8.00;88.95
15750;BME280;7976;52.526;13.326;2022-11-15T04:55:29;100871.19;;;8.00;89.19
15750;BME280;7976;52.526;13.326;2022-11-15T04:58:14;100882.50;;;7.99;88.79
15750;BME280;7976;52.526;13.326;2022-11-15T05:01:08;100875.63;;;7.97;88.70
15750;BME280;7976;52.526;13.326;2022-11-15T05:03:53;100877.31;;;7.98;88.61
15750;BME280;7976;52.526;13.326;2022-11-15T05:06:57;100884.31;;;7.96;88.74
15750;BME280;7976;52.526;13.326;2022-11-15T05:09:43;100880.91;;;7.94;88.81
15750;BME280;7976;52.526;13.326;2022-11-15T05:12:29;100891.34;;;7.92;88.68
15750;BME280;7976;52.526;13.326;2022-11-15T05:15:15;100888.72;;;7.92;88.80
15750;BME280;7976;52.526;13.326;2022-11-15T05:18:02;100884.47;;;7.90;88.80
15750;BME280;7976;52.526;13.326;2022-11-15T05:20:47;100882.78;;;7.89;88.88
15750;BME280;7976;52.526;13.326;2022-11-15T05:23:33;100881.88;;;7.90;88.95
15750;BME280;7976;52.526;13.326;2022-11-15T05:26:19;100884.47;;;7.90;88.88
15750;BME280;7976;52.526;13.326;2022-11-15T05:29:04;100880.09;;;7.92;89.06
15750;BME280;7976;52.526;13.326;2022-11-15T05:31:50;100878.34;;;7.91;88.97
15750;BME280;7976;52.526;13.326;2022-11-15T05:34:37;100868.75;;;7.93;89.07
15750;BME280;7976;52.526;13.326;2022-11-15T05:37:22;100883.44;;;7.97;89.02
15750;BME280;7976;52.526;13.326;2022-11-15T05:40:09;100873.88;;;7.96;89.25
15750;BME280;7976;52.526;13.326;2022-11-15T05:42:54;100876.44;;;7.97;88.96
15750;BME280;7976;52.526;13.326;2022-11-15T05:45:40;100876.44;;;7.99;89.05
15750;BME280;7976;52.526;13.326;2022-11-15T05:48:25;100874.63;;;8.01;89.21
15750;BME280;7976;52.526;13.326;2022-11-15T05:51:15;100876.31;;;8.03;88.90
15750;BME280;7976;52.526;13.326;2022-11-15T05:54:02;100876.31;;;8.03;88.72
15750;BME280;7976;52.526;13.326;2022-11-15T05:56:49;100878.88;;;8.05;88.89
15750;BME280;7976;52.526;13.326;2022-11-15T05:59:35;100884.09;;;8.05;88.84
15750;BME280;7976;52.526;13.326;2022-11-15T06:02:21;100879.75;;;8.05;88.96
15750;BME280;7976;52.526;13.326;2022-11-15T06:05:07;100886.69;;;8.05;88.59
15750;BME280;7976;52.526;13.326;2022-11-15T06:07:57;100880.66;;;8.03;88.59
15750;BME280;7976;52.526;13.326;2022-11-15T06:10:42;100882.44;;;8.01;88.98
15750;BME280;7976;52.526;13.326;2022-11-15T06:13:28;100878.13;;;8.00;88.82
15750;BME280;7976;52.526;13.326;2022-11-15T06:16:13;100887.69;;;7.99;88.76
15750;BME280;7976;52.526;13.326;2022-11-15T06:18:59;100884.25;;;7.97;88.82
15750;BME280;7976;52.526;13.326;2022-11-15T06:21:44;100882.53;;;7.98;88.81
15750;BME280;7976;52.526;13.326;2022-11-15T06:24:31;100893.84;;;7.97;88.59
15750;BME280;7976;52.526;13.326;2022-11-15T06:27:17;100894.72;;;7.96;88.53
15750;BME280;7976;52.526;13.326;2022-11-15T06:30:04;100899.19;;;7.91;88.67
15750;BME280;7976;52.526;13.326;2022-11-15T06:32:50;100893.22;;;7.86;88.44
15750;BME280;7976;52.526;13.326;2022-11-15T06:35:36;100898.47;;;7.84;88.60
15750;BME280;7976;52.526;13.326;2022-11-15T06:38:22;100888.09;;;7.83;88.67
15750;BME280;7976;52.526;13.326;2022-11-15T06:41:11;100887.28;;;7.81;88.60
15750;BME280;7976;52.526;13.326;2022-11-15T06:43:57;100892.53;;;7.79;88.98
15750;BME280;7976;52.526;13.326;2022-11-15T06:46:43;100899.50;;;7.77;88.80
15750;BME280;7976;52.526;13.326;2022-11-15T06:49:28;100901.28;;;7.77;88.98
15750;BME280;7976;52.526;13.326;2022-11-15T06:52:13;100895.25;;;7.75;89.06
15750;BME280;7976;52.526;13.326;2022-11-15T06:54:59;100904.72;;;7.77;89.17
15750;BME280;7976;52.526;13.326;2022-11-15T06:57:51;100903.81;;;7.80;89.10
15750;BME280;7976;52.526;13.326;2022-11-15T07:00:37;100901.22;;;7.80;88.73
15750;BME280;7976;52.526;13.326;2022-11-15T07:03:23;100905.56;;;7.79;88.59
15750;BME280;7976;52.526;13.326;2022-11-15T07:06:09;100902.94;;;7.79;89.12
15750;BME280;7976;52.526;13.326;2022-11-15T07:08:55;100902.06;;;7.80;88.94
15750;BME280;7976;52.526;13.326;2022-11-15T07:11:41;100910.69;;;7.84;89.13
15750;BME280;7976;52.526;13.326;2022-11-15T07:14:28;100917.59;;;7.85;88.92
15750;BME280;7976;52.526;13.326;2022-11-15T07:17:13;100911.50;;;7.84;88.89
15750;BME280;7976;52.526;13.326;2022-11-15T07:19:59;100924.50;;;7.86;89.14
15750;BME280;7976;52.526;13.326;2022-11-15T07:22:44;100927.06;;;7.87;88.90
15750;BME280;7976;52.526;13.326;2022-11-15T07:25:30;100926.06;;;7.93;89.26
15750;BME280;7976;52.526;13.326;2022-11-15T07:28:16;100923.44;;;7.94;89.08
15750;BME280;7976;52.526;13.326;2022-11-15T07:31:04;100925.09;;;7.98;88.98
15750;BME280;7976;52.526;13.326;2022-11-15T07:33:50;100915.44;;;8.02;88.92
15750;BME280;7976;52.526;13.326;2022-11-15T07:36:36;100924.09;;;8.04;89.01
15750;BME280;7976;52.526;13.326;2022-11-15T07:39:21;100918.78;;;8.07;88.90
15750;BME280;7976;52.526;13.326;2022-11-15T07:42:07;100919.59;;;8.10;88.80
15750;BME280;7976;52.526;13.326;2022-11-15T07:45:10;100929.94;;;8.13;88.89
15750;BME280;7976;52.526;13.326;2022-11-15T07:47:57;100922.06;;;8.15;88.65
15750;BME280;7976;52.526;13.326;2022-11-15T07:50:43;100921.13;;;8.17;88.57
15750;BME280;7976;52.526;13.326;2022-11-15T07:53:29;100915.00;;;8.20;88.69
15750;BME280;7976;52.526;13.326;2022-11-15T07:56:15;100917.50;;;8.23;88.66
15750;BME280;7976;52.526;13.326;2022-11-15T07:59:01;100914.84;;;8.26;88.58
15750;BME280;7976;52.526;13.326;2022-11-15T08:01:46;100923.41;;;8.31;88.56
15750;BME280;7976;52.526;13.326;2022-11-15T08:04:33;100902.50;;;8.34;88.43
15750;BME280;7976;52.526;13.326;2022-11-15T08:07:19;100916.31;;;8.37;88.26
15750;BME280;7976;52.526;13.326;2022-11-15T08:10:06;100912.78;;;8.40;88.40
15750;BME280;7976;52.526;13.326;2022-11-15T08:13:00;100903.13;;;8.43;88.26
15750;BME280;7976;52.526;13.326;2022-11-15T08:15:46;100897.78;;;8.48;88.18
15750;BME280;7976;52.526;13.326;2022-11-15T08:18:32;100903.78;;;8.51;88.32
15750;BME280;7976;52.526;13.326;2022-11-15T08:21:20;100899.28;;;8.56;88.12
15750;BME280;7976;52.526;13.326;2022-11-15T08:24:08;100907.00;;;8.61;88.34
15750;BME280;7976;52.526;13.326;2022-11-15T08:26:54;100899.84;;;8.69;88.21
15750;BME280;7976;52.526;13.326;2022-11-15T08:29:42;100894.50;;;8.73;87.92
15750;BME280;7976;52.526;13.326;2022-11-15T08:32:27;100899.53;;;8.79;87.89
15750;BME280;7976;52.526;13.326;2022-11-15T08:35:13;100893.28;;;8.85;87.61
15750;BME280;7976;52.526;13.326;2022-11-15T08:38:00;100897.56;;;8.87;87.58
15750;BME280;7976;52.526;13.326;2022-11-15T08:40:46;100898.28;;;8.93;87.36
15750;BME280;7976;52.526;13.326;2022-11-15T08:43:31;100899.88;;;8.98;87.31
15750;BME280;7976;52.526;13.326;2022-11-15T08:46:17;100902.38;;;9.01;87.35
15750;BME280;7976;52.526;13.326;2022-11-15T08:49:03;100903.06;;;9.08;87.47
15750;BME280;7976;52.526;13.326;2022-11-15T08:51:48;100899.34;;;9.16;87.38
15750;BME280;7976;52.526;13.326;2022-11-15T08:54:35;100897.41;;;9.23;87.31
15750;BME280;7976;52.526;13.326;2022-11-15T08:57:20;100903.34;;;9.28;86.81
15750;BME280;7976;52.526;13.326;2022-11-15T09:00:08;100908.47;;;9.32;86.77
15750;BME280;7976;52.526;13.326;2022-11-15T09:02:53;100904.78;;;9.39;86.64
15750;BME280;7976;52.526;13.326;2022-11-15T09:05:39;100905.44;;;9.46;86.51
15750;BME280;7976;52.526;13.326;2022-11-15T09:08:29;100893.09;;;9.51;86.08
15750;BME280;7976;52.526;13.326;2022-11-15T09:11:16;100888.53;;;9.57;86.57
15750;BME280;7976;52.526;13.326;2022-11-15T09:14:04;100888.38;;;9.62;86.43
15750;BME280;7976;52.526;13.326;2022-11-15T09:16:50;100893.47;;;9.66;86.04
15750;BME280;7976;52.526;13.326;2022-11-15T09:19:36;100898.50;;;9.72;85.76
15750;BME280;7976;52.526;13.326;2022-11-15T09:22:21;100900.13;;;9.76;85.34
15750;BME280;7976;52.526;13.326;2022-11-15T09:25:08;100900.78;;;9.83;85.23
15750;BME280;7976;52.526;13.326;2022-11-15T09:27:56;100897.13;;;9.88;85.09
15750;BME280;7976;52.526;13.326;2022-11-15T09:30:42;100904.78;;;9.94;84.99
15750;BME280;7976;52.526;13.326;2022-11-15T09:33:28;100909.00;;;9.98;84.99
15750;BME280;7976;52.526;13.326;2022-11-15T09:36:14;100908.88;;;10.01;84.89
15750;BME280;7976;52.526;13.326;2022-11-15T09:39:01;100905.22;;;10.07;84.73
15750;BME280;7976;52.526;13.326;2022-11-15T09:42:12;100905.91;;;10.13;84.56
15750;BME280;7976;52.526;13.326;2022-11-15T09:45:17;100905.72;;;10.20;84.43
15750;BME280;7976;52.526;13.326;2022-11-15T09:48:46;100901.22;;;10.25;84.08
15750;BME280;7976;52.526;13.326;2022-11-15T09:51:45;100893.13;;;10.31;84.09
15750;BME280;7976;52.526;13.326;2022-11-15T09:54:26;100881.75;;;10.33;83.87
15750;BME280;7976;52.526;13.326;2022-11-15T09:56:56;100890.28;;;10.38;83.67
15750;BME280;7976;52.526;13.326;2022-11-15T09:59:49;100883.91;;;10.45;83.81
15750;BME280;7976;52.526;13.326;2022-11-15T10:02:44;100881.09;;;10.51;83.43
15750;BME280;7976;52.526;13.326;2022-11-15T10:05:19;100880.38;;;10.71;83.73
15750;BME280;7976;52.526;13.326;2022-11-15T10:07:55;100872.34;;;11.00;83.18
15750;BME280;7976;52.526;13.326;2022-11-15T10:10:29;100873.16;;;11.25;82.04
15750;BME280;7976;52.526;13.326;2022-11-15T10:12:59;100868.41;;;11.34;81.19
15750;BME280;7976;52.526;13.326;2022-11-15T10:15:26;100869.28;;;11.35;80.87
15750;BME280;7976;52.526;13.326;2022-11-15T10:18:09;100859.75;;;11.32;80.63
15750;BME280;7976;52.526;13.326;2022-11-15T10:20:48;100859.88;;;11.29;80.76
15750;BME280;7976;52.526;13.326;2022-11-15T10:23:18;100852.13;;;11.26;80.82
15750;BME280;7976;52.526;13.326;2022-11-15T10:25:46;100858.31;;;11.24;80.81
15750;BME280;7976;52.526;13.326;2022-11-15T10:28:17;100853.09;;;11.24;80.70
15750;BME280;7976;52.526;13.326;2022-11-15T10:30:46;100843.47;;;11.24;80.71
15750;BME280;7976;52.526;13.326;2022-11-15T10:33:31;100836.47;;;11.25;80.61
15750;BME280;7976;52.526;13.326;2022-11-15T10:36:20;100825.06;;;11.26;80.85
15750;BME280;7976;52.526;13.326;2022-11-15T10:38:57;100831.09;;;11.28;80.49
15750;BME280;7976;52.526;13.326;2022-11-15T10:41:36;100829.28;;;11.30;80.56
15750;BME280;7976;52.526;13.326;2022-11-15T10:44:23;100827.41;;;11.33;80.56
15750;BME280;7976;52.526;13.326;2022-11-15T10:47:26;100820.25;;;11.37;80.85
15750;BME280;7976;52.526;13.326;2022-11-15T10:50:03;100809.69;;;11.40;80.46
15750;BME280;7976;52.526;13.326;2022-11-15T10:52:33;100811.25;;;11.44;80.45
15750;BME280;7976;52.526;13.326;2022-11-15T10:55:12;100808.50;;;11.47;80.17
15750;BME280;7976;52.526;13.326;2022-11-15T10:57:50;100801.44;;;11.49;80.53
15750;BME280;7976;52.526;13.326;2022-11-15T11:00:31;100800.47;;;11.52;80.21
15750;BME280;7976;52.526;13.326;2022-11-15T11:03:01;100803.81;;;11.55;80.23
15750;BME280;7976;52.526;13.326;2022-11-15T11:05:34;100803.69;;;11.58;80.25
15750;BME280;7976;52.526;13.326;2022-11-15T11:08:18;100789.59;;;11.61;80.05
15750;BME280;7976;52.526;13.326;2022-11-15T11:10:53;100785.97;;;11.65;80.09
15750;BME280;7976;52.526;13.326;2022-11-15T11:13:24;100777.94;;;11.69;79.54
15750;BME280;7976;52.526;13.326;2022-11-15T11:15:59;100782.19;;;11.72;79.86
15750;BME280;7976;52.526;13.326;2022-11-15T11:18:33;100781.06;;;11.77;79.71
15750;BME280;7976;52.526;13.326;2022-11-15T11:21:12;100781.81;;;11.81;79.52
15750;BME280;7976;52.526;13.326;2022-11-15T11:23:51;100779.13;;;11.82;79.64
15750;BME280;7976;52.526;13.326;2022-11-15T11:26:35;100777.28;;;11.84;79.37
15750;BME280;7976;52.526;13.326;2022-11-15T11:29:32;100774.53;;;11.87;79.60
15750;BME280;7976;52.526;13.326;2022-11-15T11:32:23;100775.19;;;11.92;79.43
15750;BME280;7976;52.526;13.326;2022-11-15T11:35:01;100777.72;;;11.95;79.61
15750;BME280;7976;52.526;13.326;2022-11-15T11:37:43;100778.47;;;11.97;79.52
15750;BME280;7976;52.526;13.326;2022-11-15T11:40:27;100767.00;;;12.00;79.32
15750;BME280;7976;52.526;13.326;2022-11-15T11:43:02;100761.69;;;12.01;79.32
15750;BME280;7976;52.526;13.326;2022-11-15T11:46:11;100756.31;;;12.04;79.45
15750;BME280;7976;52.526;13.326;2022-11-15T11:48:43;100762.34;;;12.06;79.57
15750;BME280;7976;52.526;13.326;2022-11-15T11:51:18;100761.38;;;12.09;79.69
15750;BME280;7976;52.526;13.326;2022-11-15T11:53:54;100756.97;;;12.09;79.91
15750;BME280;7976;52.526;13.326;2022-11-15T11:56:28;100757.75;;;12.11;80.02
15750;BME280;7976;52.526;13.326;2022-11-15T11:59:02;100751.59;;;12.12;79.81
15750;BME280;7976;52.526;13.326;2022-11-15T12:01:37;100746.22;;;12.15;79.91
15750;BME280;7976;52.526;13.326;2022-11-15T12:04:14;100739.13;;;12.17;79.76
15750;BME280;7976;52.526;13.326;2022-11-15T12:06:49;100735.47;;;12.21;79.87
15750;BME280;7976;52.526;13.326;2022-11-15T12:09:26;100737.16;;;12.22;79.58
15750;BME280;7976;52.526;13.326;2022-11-15T12:12:06;100738.81;;;12.25;79.45
15750;BME280;7976;52.526;13.326;2022-11-15T12:14:41;100730.88;;;12.26;79.37
15750;BME280;7976;52.526;13.326;2022-11-15T12:17:10;100735.19;;;12.27;79.32
15750;BME280;7976;52.526;13.326;2022-11-15T12:19:38;100734.28;;;12.28;79.32
15750;BME280;7976;52.526;13.326;2022-11-15T12:22:13;100735.81;;;12.32;79.30
15750;BME280;7976;52.526;13.326;2022-11-15T12:24:51;100729.59;;;12.35;79.57
15750;BME280;7976;52.526;13.326;2022-11-15T12:27:31;100727.69;;;12.38;79.69
15750;BME280;7976;52.526;13.326;2022-11-15T12:30:07;100726.69;;;12.41;79.07
15750;BME280;7976;52.526;13.326;2022-11-15T12:32:38;100717.84;;;12.43;79.39
15750;BME280;7976;52.526;13.326;2022-11-15T12:35:30;100713.38;;;12.45;79.19
15750;BME280;7976;52.526;13.326;2022-11-15T12:37:59;100716.75;;;12.47;79.07
15750;BME280;7976;52.526;13.326;2022-11-15T12:40:34;100713.25;;;12.48;79.27
15750;BME280;7976;52.526;13.326;2022-11-15T12:46:11;100704.25;;;12.54;78.95
15750;BME280;7976;52.526;13.326;2022-11-15T12:48:52;100698.63;;;12.61;78.54
15750;BME280;7976;52.526;13.326;2022-11-15T12:51:22;100694.88;;;12.67;77.97
15750;BME280;7976;52.526;13.326;2022-11-15T12:53:49;100685.91;;;12.71;77.86
15750;BME280;7976;52.526;13.326;2022-11-15T12:56:24;100691.03;;;12.74;78.01
15750;BME280;7976;52.526;13.326;2022-11-15T12:58:57;100690.03;;;12.77;77.75
15750;BME280;7976;52.526;13.326;2022-11-15T13:01:59;100694.22;;;12.81;77.92
15750;BME280;7976;52.526;13.326;2022-11-15T13:04:29;100692.44;;;12.81;77.73
15750;BME280;7976;52.526;13.326;2022-11-15T13:07:00;100692.34;;;12.83;77.54
15750;BME280;7976;52.526;13.326;2022-11-15T13:09:54;100690.66;;;12.82;77.47
15750;BME280;7976;52.526;13.326;2022-11-15T13:12:58;100688.97;;;12.81;78.06
15750;BME280;7976;52.526;13.326;2022-11-15T13:15:55;100688.19;;;12.79;78.18
15750;BME280;7976;52.526;13.326;2022-11-15T13:18:38;100687.41;;;12.77;78.11
15750;BME280;7976;52.526;13.326;2022-11-15T13:21:21;100681.38;;;12.75;77.98
15750;BME280;7976;52.526;13.326;2022-11-15T13:24:13;100682.22;;;12.75;78.30
15750;BME280;7976;52.526;13.326;2022-11-15T13:26:41;100676.91;;;12.77;78.33
15750;BME280;7976;52.526;13.326;2022-11-15T13:29:19;100669.81;;;12.79;78.33
15750;BME280;7976;52.526;13.326;2022-11-15T13:31:47;100669.72;;;12.80;78.17
15750;BME280;7976;52.526;13.326;2022-11-15T13:34:24;100661.78;;;12.82;78.20
15750;BME280;7976;52.526;13.326;2022-11-15T13:36:52;100667.66;;;12.87;78.19
15750;BME280;7976;52.526;13.326;2022-11-15T13:39:30;100666.59;;;12.91;77.73
15750;BME280;7976;52.526;13.326;2022-11-15T13:41:58;100668.28;;;12.92;77.60
15750;BME280;7976;52.526;13.326;2022-11-15T13:44:29;100670.03;;;12.93;77.87
15750;BME280;7976;52.526;13.326;2022-11-15T13:47:13;100672.66;;;12.93;77.95
15750;BME280;7976;52.526;13.326;2022-11-15T13:49:41;100670.03;;;12.93;77.75
15750;BME280;7976;52.526;13.326;2022-11-15T13:52:13;100667.38;;;12.93;77.58
15750;BME280;7976;52.526;13.326;2022-11-15T13:54:46;100660.34;;;12.93;77.90
15750;BME280;7976;52.526;13.326;2022-11-15T13:57:20;100662.13;;;12.93;77.85
15750;BME280;7976;52.526;13.326;2022-11-15T13:59:54;100664.53;;;12.97;77.98
15750;BME280;7976;52.526;13.326;2022-11-15T14:02:30;100671.63;;;12.95;77.86
15750;BME280;7976;52.526;13.326;2022-11-15T14:05:04;100669.06;;;12.94;77.71
15750;BME280;7976;52.526;13.326;2022-11-15T14:07:31;100664.81;;;12.91;78.30
15750;BME280;7976;52.526;13.326;2022-11-15T14:10:24;100670.03;;;12.93;78.21
15750;BME280;7976;52.526;13.326;2022-11-15T14:12:51;100675.19;;;12.94;77.84
15750;BME280;7976;52.526;13.326;2022-11-15T14:15:28;100669.78;;;12.97;77.79
15750;BME280;7976;52.526;13.326;2022-11-15T14:17:56;100665.41;;;12.98;77.73
15750;BME280;7976;52.526;13.326;2022-11-15T14:20:32;100666.22;;;12.98;77.92
15750;BME280;7976;52.526;13.326;2022-11-15T14:23:01;100661.03;;;12.97;77.59
15750;BME280;7976;52.526;13.326;2022-11-15T14:25:30;100653.16;;;12.97;77.79
15750;BME280;7976;52.526;13.326;2022-11-15T14:28:28;100656.72;;;12.96;77.89
15750;BME280;7976;52.526;13.326;2022-11-15T14:30:59;100652.38;;;12.95;77.63
15750;BME280;7976;52.526;13.326;2022-11-15T14:33:29;100651.47;;;12.96;77.98
15750;BME280;7976;52.526;13.326;2022-11-15T14:36:03;100650.69;;;12.94;77.73